createdAt,value
2022-07-28T00:00:12.921Z,6.13
2022-07-28T00:02:40.232Z,4.75
2022-07-28T00:05:08.025Z,5.22
2022-07-28T00:07:35.386Z,5.20
2022-07-28T00:10:02.754Z,5.32
2022-07-28T00:12:29.880Z,6.47
2022-07-28T00:14:57.142Z,5.57
2022-07-28T00:17:24.379Z,6.10
2022-07-28T00:19:51.487Z,5.35
2022-07-28T00:22:19.674Z,6.45
2022-07-28T00:24:46.878Z,5.53
2022-07-28T00:27:19.248Z,5.70
2022-07-28T00:29:50.559Z,6.78
2022-07-28T00:32:21.186Z,5.82
2022-07-28T00:34:48.526Z,6.60
2022-07-28T00:37:15.641Z,5.80
2022-07-28T00:39:43.951Z,5.35
2022-07-28T00:42:11.655Z,4.72
2022-07-28T00:44:42.252Z,4.70
2022-07-28T00:47:09.586Z,5.38
2022-07-28T00:49:36.954Z,6.45
2022-07-28T00:52:05.343Z,5.38
2022-07-28T00:54:33.837Z,6.15
2022-07-28T00:57:01.248Z,5.43
2022-07-28T00:59:28.615Z,5.60
2022-07-28T01:01:56.420Z,5.75
2022-07-28T01:04:25.461Z,5.78
2022-07-28T01:07:11.050Z,4.35
2022-07-28T01:09:41.075Z,4.78
2022-07-28T01:12:21.001Z,4.70
2022-07-28T01:14:53.089Z,4.90
2022-07-28T01:17:33.493Z,4.30
2022-07-28T01:20:12.691Z,5.30
2022-07-28T01:23:10.020Z,4.47
2022-07-28T01:25:48.487Z,5.25
2022-07-28T01:28:15.853Z,4.65
2022-07-28T01:30:47.808Z,4.72
2022-07-28T01:33:22.284Z,5.40
2022-07-28T01:35:58.829Z,4.78
2022-07-28T01:38:28.021Z,4.22
2022-07-28T01:40:57.354Z,4.50
2022-07-28T01:43:26.719Z,4.53
2022-07-28T01:45:56.680Z,3.65
2022-07-28T01:48:25.298Z,4.07
2022-07-28T01:50:55.140Z,4.32
2022-07-28T01:53:24.600Z,4.20
2022-07-28T01:55:53.090Z,4.15
2022-07-28T01:58:23.503Z,4.53
2022-07-28T02:00:51.839Z,4.35
2022-07-28T02:03:21.562Z,4.20
2022-07-28T02:05:50.814Z,5.13
2022-07-28T02:08:20.835Z,4.15
2022-07-28T02:11:10.591Z,4.20
2022-07-28T02:13:38.861Z,4.32
2022-07-28T02:16:10.739Z,5.20
2022-07-28T02:18:40.176Z,3.13
2022-07-28T02:21:07.912Z,4.25
2022-07-28T02:23:36.442Z,4.65
2022-07-28T02:26:07.892Z,4.40
2022-07-28T02:28:37.078Z,4.85
2022-07-28T02:31:13.479Z,3.97
2022-07-28T02:33:59.484Z,4.32
2022-07-28T02:36:37.701Z,3.95
2022-07-28T02:39:12.954Z,4.22
2022-07-28T02:41:43.150Z,4.70
2022-07-28T02:44:18.062Z,4.47
2022-07-28T02:46:49.749Z,4.35
2022-07-28T02:49:31.492Z,4.57
2022-07-28T02:52:01.046Z,4.40
2022-07-28T02:54:30.354Z,4.35
2022-07-28T02:57:00.445Z,3.83
2022-07-28T02:59:29.228Z,3.95
2022-07-28T03:01:57.138Z,4.35
2022-07-28T03:04:43.676Z,4.20
2022-07-28T03:07:11.352Z,4.65
2022-07-28T03:09:45.998Z,3.47
2022-07-28T03:14:41.062Z,3.70
2022-07-28T03:17:08.704Z,4.00
2022-07-28T03:19:36.554Z,3.42
2022-07-28T03:22:04.515Z,3.95
2022-07-28T03:24:37.181Z,3.97
2022-07-28T03:27:13.547Z,3.60
2022-07-28T03:29:43.398Z,4.03
2022-07-28T03:32:10.969Z,4.47
2022-07-28T03:34:38.223Z,3.53
2022-07-28T03:37:19.028Z,3.78
2022-07-28T03:39:48.625Z,3.67
2022-07-28T03:42:18.888Z,3.90
2022-07-28T03:44:47.974Z,3.90
2022-07-28T03:47:15.970Z,3.78
2022-07-28T03:49:46.317Z,4.07
2022-07-28T03:52:13.674Z,3.58
2022-07-28T03:54:40.923Z,3.35
2022-07-28T03:57:08.056Z,3.28
2022-07-28T03:59:35.129Z,3.20
2022-07-28T04:02:02.428Z,2.85
2022-07-28T04:04:29.676Z,3.08
2022-07-28T04:06:56.797Z,2.50
2022-07-28T04:09:23.977Z,2.83
2022-07-28T04:11:51.268Z,2.92
2022-07-28T04:14:18.832Z,2.78
2022-07-28T04:16:46.353Z,2.42
2022-07-28T04:19:13.598Z,2.97
2022-07-28T04:21:40.712Z,2.95
2022-07-28T04:24:10.334Z,2.95
2022-07-28T04:26:37.772Z,2.30
2022-07-28T04:29:05.067Z,2.47
2022-07-28T04:31:32.292Z,2.70
2022-07-28T04:34:00.440Z,2.65
2022-07-28T04:36:28.095Z,2.53
2022-07-28T04:38:57.055Z,2.75
2022-07-28T04:41:24.256Z,3.10
2022-07-28T04:43:51.415Z,2.83
2022-07-28T04:46:18.740Z,2.63
2022-07-28T04:48:45.980Z,3.20
2022-07-28T04:51:13.248Z,3.15
2022-07-28T04:53:40.469Z,2.85
2022-07-28T04:56:07.654Z,2.60
2022-07-28T04:58:35.028Z,2.75
2022-07-28T05:01:02.680Z,2.83
2022-07-28T05:03:35.687Z,2.97
2022-07-28T05:06:03.803Z,2.85
2022-07-28T05:08:30.973Z,2.80
2022-07-28T05:10:58.108Z,3.15
2022-07-28T05:13:30.428Z,2.50
2022-07-28T05:16:00.904Z,2.78
2022-07-28T05:18:28.067Z,2.83
2022-07-28T05:20:55.206Z,2.80
2022-07-28T05:23:22.411Z,2.55
2022-07-28T05:25:49.844Z,2.90
2022-07-28T05:28:17.129Z,3.30
2022-07-28T05:30:44.492Z,4.30
2022-07-28T05:33:11.638Z,3.00
2022-07-28T05:35:38.737Z,3.75
2022-07-28T05:38:10.664Z,3.17
2022-07-28T05:40:38.238Z,2.50
2022-07-28T05:43:05.310Z,2.60
2022-07-28T05:45:34.350Z,3.00
2022-07-28T05:48:03.316Z,2.90
2022-07-28T05:50:30.411Z,3.20
2022-07-28T05:52:57.526Z,2.45
2022-07-28T05:55:24.780Z,2.45
2022-07-28T05:57:52.004Z,2.50
2022-07-28T06:00:21.157Z,2.65
2022-07-28T06:02:49.850Z,2.50
2022-07-28T06:05:18.833Z,3.30
2022-07-28T06:07:47.869Z,2.50
2022-07-28T06:10:17.556Z,2.72
2022-07-28T06:12:47.291Z,2.58
2022-07-28T06:15:16.394Z,2.20
2022-07-28T06:17:43.712Z,2.20
2022-07-28T06:20:11.800Z,2.20
2022-07-28T06:22:55.490Z,2.78
2022-07-28T06:25:25.107Z,2.30
2022-07-28T06:27:54.969Z,2.13
2022-07-28T06:30:23.100Z,2.90
2022-07-28T06:32:50.697Z,2.10
2022-07-28T06:35:18.393Z,3.25
2022-07-28T06:37:46.981Z,2.78
2022-07-28T06:40:15.469Z,3.17
2022-07-28T06:42:44.199Z,3.60
2022-07-28T06:45:19.447Z,3.22
2022-07-28T06:47:48.092Z,3.53
2022-07-28T06:50:26.083Z,2.85
2022-07-28T06:52:55.984Z,4.32
2022-07-28T06:55:23.164Z,3.03
2022-07-28T06:57:50.606Z,3.20
2022-07-28T07:00:18.069Z,2.35
2022-07-28T07:02:45.237Z,2.97
2022-07-28T07:05:13.362Z,2.75
2022-07-28T07:07:43.402Z,2.55
2022-07-28T07:10:12.186Z,3.53
2022-07-28T07:12:39.377Z,2.88
2022-07-28T07:15:07.701Z,3.00
2022-07-28T07:17:34.920Z,4.85
2022-07-28T07:20:02.117Z,3.75
2022-07-28T07:22:30.377Z,3.00
2022-07-28T07:24:57.884Z,3.97
2022-07-28T07:27:25.583Z,3.25
2022-07-28T07:29:52.738Z,3.53
2022-07-28T07:32:19.871Z,2.85
2022-07-28T07:34:46.916Z,2.30
2022-07-28T07:37:15.426Z,2.03
2022-07-28T07:39:42.755Z,2.58
2022-07-28T07:42:10.067Z,2.20
2022-07-28T07:44:37.264Z,1.80
2022-07-28T07:47:04.844Z,2.20
2022-07-28T07:49:45.639Z,2.10
2022-07-28T07:52:14.298Z,1.73
2022-07-28T07:54:41.992Z,2.28
2022-07-28T07:57:11.134Z,1.90
2022-07-28T07:59:38.414Z,1.75
2022-07-28T08:02:06.105Z,2.15
2022-07-28T08:04:34.662Z,2.70
2022-07-28T08:07:05.588Z,2.55
2022-07-28T08:09:33.412Z,2.28
2022-07-28T08:12:00.632Z,2.53
2022-07-28T08:14:27.845Z,2.80
2022-07-28T08:16:56.989Z,3.28
2022-07-28T08:19:24.307Z,2.63
2022-07-28T08:21:52.074Z,2.38
2022-07-28T08:24:32.436Z,2.28
2022-07-28T08:27:02.658Z,2.50
2022-07-28T08:29:29.969Z,2.20
2022-07-28T08:31:57.685Z,1.98
2022-07-28T08:34:31.688Z,2.45
2022-07-28T08:37:03.760Z,1.95
2022-07-28T08:39:32.689Z,1.98
2022-07-28T08:42:06.321Z,2.10
2022-07-28T08:47:16.911Z,1.65
2022-07-28T08:49:44.087Z,1.58
2022-07-28T08:52:13.221Z,1.95
2022-07-28T08:54:47.021Z,1.60
2022-07-28T08:57:20.614Z,1.58
2022-07-28T09:02:17.616Z,1.83
2022-07-28T09:04:46.609Z,2.38
2022-07-28T09:07:14.793Z,1.75
2022-07-28T09:09:42.213Z,2.20
2022-07-28T09:12:09.727Z,2.10
2022-07-28T09:14:36.967Z,2.03
2022-07-28T09:17:05.433Z,2.17
2022-07-28T09:19:34.425Z,1.80
2022-07-28T09:22:03.205Z,1.80
2022-07-28T09:24:35.418Z,2.20
2022-07-28T09:27:07.154Z,1.30
2022-07-28T09:29:36.277Z,1.70
2022-07-28T09:32:05.030Z,1.52
2022-07-28T09:34:43.564Z,1.98
2022-07-28T09:37:27.641Z,1.75
2022-07-28T09:40:00.104Z,1.52
2022-07-28T09:42:46.458Z,1.80
2022-07-28T09:45:22.848Z,1.67
2022-07-28T09:48:09.410Z,1.42
2022-07-28T09:50:36.849Z,1.48
2022-07-28T09:53:27.268Z,1.92
2022-07-28T09:56:02.291Z,1.90
2022-07-28T09:58:32.679Z,1.65
2022-07-28T10:01:12.418Z,1.52
2022-07-28T10:03:43.219Z,1.75
2022-07-28T10:06:24.699Z,1.73
2022-07-28T10:08:53.050Z,1.60
2022-07-28T10:11:27.241Z,1.80
2022-07-28T10:14:06.561Z,1.80
2022-07-28T10:16:42.770Z,1.63
2022-07-28T10:19:10.218Z,1.40
2022-07-28T10:21:44.641Z,2.00
2022-07-28T10:24:21.165Z,1.88
2022-07-28T10:26:49.731Z,1.80
2022-07-28T10:29:18.765Z,1.67
2022-07-28T10:31:46.783Z,2.00
2022-07-28T10:34:24.582Z,2.00
2022-07-28T10:36:55.701Z,1.90
2022-07-28T10:39:25.726Z,2.00
2022-07-28T10:41:53.567Z,1.95
2022-07-28T10:44:21.089Z,1.90
2022-07-28T10:46:48.476Z,1.75
2022-07-28T10:49:15.816Z,1.83
2022-07-28T10:52:04.872Z,1.90
2022-07-28T10:54:45.773Z,2.15
2022-07-28T10:57:15.968Z,2.03
2022-07-28T11:00:12.125Z,2.08
2022-07-28T11:02:48.705Z,2.47
2022-07-28T11:05:39.708Z,2.35
2022-07-28T11:08:17.410Z,2.10
2022-07-28T11:10:56.262Z,2.40
2022-07-28T11:13:36.878Z,1.92
2022-07-28T11:16:14.349Z,1.83
2022-07-28T11:19:04.761Z,1.90
2022-07-28T11:21:39.788Z,2.22
2022-07-28T11:24:08.391Z,2.50
2022-07-28T11:26:37.058Z,2.63
2022-07-28T11:29:04.343Z,2.30
2022-07-28T11:31:46.920Z,2.25
2022-07-28T11:34:22.186Z,2.25
2022-07-28T11:37:15.316Z,2.53
2022-07-28T11:39:44.237Z,2.30
2022-07-28T11:42:29.179Z,2.10
2022-07-28T11:45:18.320Z,2.70
2022-07-28T11:47:45.828Z,2.67
2022-07-28T11:50:15.431Z,2.47
2022-07-28T11:52:56.133Z,2.33
2022-07-28T11:55:49.233Z,2.80
2022-07-28T11:58:25.535Z,2.72
2022-07-28T12:01:19.912Z,2.97
2022-07-28T12:03:56.763Z,2.38
2022-07-28T12:06:35.837Z,2.67
2022-07-28T12:09:09.362Z,2.70
2022-07-28T12:14:07.421Z,2.63
2022-07-28T12:16:37.887Z,2.67
2022-07-28T12:19:08.506Z,2.17
2022-07-28T12:21:46.361Z,2.88
2022-07-28T12:24:29.800Z,2.40
2022-07-28T12:26:58.195Z,2.47
2022-07-28T12:29:32.201Z,2.33
2022-07-28T12:32:10.456Z,2.17
2022-07-28T12:34:40.819Z,2.15
2022-07-28T12:37:12.681Z,2.40
2022-07-28T12:39:43.570Z,2.72
2022-07-28T12:42:13.228Z,2.50
2022-07-28T12:44:43.047Z,2.60
2022-07-28T12:47:14.587Z,2.42
2022-07-28T12:49:45.595Z,2.63
2022-07-28T12:52:17.591Z,2.30
2022-07-28T12:54:54.165Z,2.15
2022-07-28T12:57:48.134Z,2.47
2022-07-28T13:00:19.834Z,2.63
2022-07-28T13:02:47.855Z,3.25
2022-07-28T13:05:33.527Z,2.50
2022-07-28T13:08:05.031Z,2.67
2022-07-28T13:10:32.379Z,2.55
2022-07-28T13:13:05.409Z,2.55
2022-07-28T13:15:32.819Z,3.03
2022-07-28T13:18:00.528Z,2.58
2022-07-28T13:20:27.846Z,3.30
2022-07-28T13:22:57.615Z,2.90
2022-07-28T13:25:25.179Z,2.47
2022-07-28T13:27:55.398Z,2.78
2022-07-28T13:30:23.963Z,3.22
2022-07-28T13:32:51.338Z,2.80
2022-07-28T13:35:20.869Z,2.60
2022-07-28T13:37:48.896Z,2.67
2022-07-28T13:40:16.194Z,2.35
2022-07-28T13:42:53.393Z,2.30
2022-07-28T13:45:24.903Z,3.15
2022-07-28T13:47:57.197Z,2.70
2022-07-28T13:50:24.445Z,2.63
2022-07-28T13:52:51.613Z,2.80
2022-07-28T13:55:19.886Z,2.65
2022-07-28T13:58:08.216Z,3.08
2022-07-28T14:03:03.587Z,2.83
2022-07-28T14:05:35.691Z,3.03
2022-07-28T14:08:03.080Z,2.42
2022-07-28T14:10:30.289Z,3.10
2022-07-28T14:12:57.466Z,2.47
2022-07-28T14:15:24.590Z,2.50
2022-07-28T14:17:51.801Z,2.30
2022-07-28T14:20:18.989Z,2.95
2022-07-28T14:22:46.790Z,2.75
2022-07-28T14:25:20.906Z,2.60
2022-07-28T14:27:49.653Z,2.63
2022-07-28T14:30:17.269Z,2.58
2022-07-28T14:32:44.360Z,2.40
2022-07-28T14:35:11.582Z,2.50
2022-07-28T14:38:15.704Z,2.45
2022-07-28T14:40:26.386Z,2.45
2022-07-28T14:42:53.510Z,2.42
2022-07-28T14:45:20.786Z,2.10
2022-07-28T14:47:48.091Z,2.33
2022-07-28T14:50:15.173Z,2.05
2022-07-28T14:52:44.729Z,2.35
2022-07-28T14:55:13.208Z,2.25
2022-07-28T14:57:51.832Z,2.15
2022-07-28T15:00:22.748Z,2.35
2022-07-28T15:02:52.029Z,2.47
2022-07-28T15:05:20.014Z,2.20
2022-07-28T15:07:49.591Z,2.00
2022-07-28T15:10:16.780Z,2.70
2022-07-28T15:12:44.234Z,2.38
2022-07-28T15:15:12.000Z,2.47
2022-07-28T15:17:40.490Z,2.42
2022-07-28T15:20:08.977Z,2.40
2022-07-28T15:22:36.505Z,3.15
2022-07-28T15:25:05.577Z,3.22
2022-07-28T15:27:33.700Z,2.92
2022-07-28T15:30:03.008Z,2.65
2022-07-28T15:32:31.836Z,2.50
2022-07-28T15:34:59.169Z,2.60
2022-07-28T15:37:27.633Z,3.03
2022-07-28T15:39:54.806Z,2.50
2022-07-28T15:42:21.964Z,2.70
2022-07-28T15:44:49.686Z,2.75
2022-07-28T15:47:16.910Z,2.67
2022-07-28T15:49:44.003Z,2.80
2022-07-28T15:52:11.236Z,2.60
2022-07-28T15:54:38.364Z,2.22
2022-07-28T15:57:05.494Z,2.53
2022-07-28T15:59:49.098Z,2.28
2022-07-28T16:02:18.128Z,2.30
2022-07-28T16:04:53.203Z,2.22
2022-07-28T16:07:24.674Z,2.63
2022-07-28T16:09:54.597Z,2.72
2022-07-28T16:12:25.103Z,2.58
2022-07-28T16:14:56.079Z,2.80
2022-07-28T16:17:24.019Z,2.85
2022-07-28T16:19:52.116Z,2.90
2022-07-28T16:22:21.270Z,2.72
2022-07-28T16:24:48.592Z,3.00
2022-07-28T16:27:15.767Z,2.58
2022-07-28T16:29:44.016Z,3.10
2022-07-28T16:32:11.541Z,2.85
2022-07-28T16:34:38.725Z,2.70
2022-07-28T16:37:06.302Z,3.10
2022-07-28T16:39:34.736Z,2.65
2022-07-28T16:42:03.213Z,2.88
2022-07-28T16:44:30.799Z,2.63
2022-07-28T16:46:58.791Z,2.55
2022-07-28T16:49:26.089Z,3.03
2022-07-28T16:51:54.937Z,3.00
2022-07-28T16:54:22.779Z,2.60
2022-07-28T16:56:50.483Z,2.95
2022-07-28T16:59:17.617Z,3.42
2022-07-28T17:01:46.391Z,3.55
2022-07-28T17:04:17.091Z,3.05
2022-07-28T17:06:45.589Z,2.75
2022-07-28T17:09:15.172Z,3.03
2022-07-28T17:11:42.883Z,2.95
2022-07-28T17:14:13.509Z,2.75
2022-07-28T17:16:40.854Z,3.05
2022-07-28T17:19:08.091Z,2.83
2022-07-28T17:21:36.179Z,2.80
2022-07-28T17:24:04.162Z,3.10
2022-07-28T17:29:19.830Z,3.25
2022-07-28T17:31:48.158Z,3.30
2022-07-28T17:34:15.898Z,3.55
2022-07-28T17:36:45.674Z,3.30
2022-07-28T17:39:13.530Z,3.47
2022-07-28T17:41:40.644Z,3.22
2022-07-28T17:44:08.238Z,3.08
2022-07-28T17:46:35.748Z,2.70
2022-07-28T17:49:03.781Z,2.85
2022-07-28T17:51:31.412Z,2.97
2022-07-28T17:53:58.704Z,3.20
2022-07-28T17:56:26.665Z,3.15
2022-07-28T17:58:56.165Z,2.70
2022-07-28T18:01:23.393Z,2.85
2022-07-28T18:03:58.094Z,2.90
2022-07-28T18:06:28.679Z,2.80
2022-07-28T18:08:56.069Z,2.40
2022-07-28T18:11:23.178Z,2.95
2022-07-28T18:14:04.137Z,2.92
2022-07-28T18:16:34.674Z,3.05
2022-07-28T18:19:03.025Z,3.00
2022-07-28T18:21:30.403Z,3.03
2022-07-28T18:23:57.650Z,3.20
2022-07-28T18:26:24.906Z,3.50
2022-07-28T18:28:52.496Z,3.08
2022-07-28T18:31:19.899Z,2.80
2022-07-28T18:33:47.145Z,2.78
2022-07-28T18:36:14.251Z,2.95
2022-07-28T18:38:42.018Z,3.28
2022-07-28T18:41:09.116Z,3.15
2022-07-28T18:43:37.242Z,2.80
2022-07-28T18:46:04.624Z,2.63
2022-07-28T18:48:31.863Z,3.20
2022-07-28T18:50:59.326Z,2.90
2022-07-28T18:53:26.985Z,3.55
2022-07-28T18:55:54.288Z,2.65
2022-07-28T18:58:21.519Z,2.47
2022-07-28T19:00:48.912Z,2.90
2022-07-28T19:03:16.152Z,2.65
2022-07-28T19:05:46.226Z,2.85
2022-07-28T19:08:13.932Z,3.08
2022-07-28T19:10:41.130Z,3.03
2022-07-28T19:13:12.261Z,3.05
2022-07-28T19:15:40.707Z,2.88
2022-07-28T19:18:10.671Z,3.40
2022-07-28T19:20:44.468Z,2.95
2022-07-28T19:23:11.897Z,3.22
2022-07-28T19:25:40.057Z,3.78
2022-07-28T19:28:07.623Z,3.55
2022-07-28T19:30:35.410Z,3.20
2022-07-28T19:33:03.782Z,3.70
2022-07-28T19:35:31.026Z,3.72
2022-07-28T19:38:00.343Z,3.40
2022-07-28T19:40:32.235Z,3.88
2022-07-28T19:43:00.416Z,3.75
2022-07-28T19:45:27.653Z,3.30
2022-07-28T19:47:55.125Z,3.97
2022-07-28T19:50:22.420Z,2.83
2022-07-28T19:52:49.930Z,3.53
2022-07-28T19:55:18.008Z,3.47
2022-07-28T19:57:46.145Z,3.22
2022-07-28T20:00:14.500Z,3.90
2022-07-28T20:02:41.809Z,3.28
2022-07-28T20:05:09.919Z,3.13
2022-07-28T20:07:38.721Z,3.40
2022-07-28T20:10:06.667Z,3.00
2022-07-28T20:12:36.622Z,3.80
2022-07-28T20:15:07.813Z,3.78
2022-07-28T20:17:38.910Z,4.07
2022-07-28T20:20:12.277Z,3.03
2022-07-28T20:22:40.345Z,3.20
2022-07-28T20:25:09.467Z,3.38
2022-07-28T20:27:40.433Z,3.80
2022-07-28T20:30:12.633Z,3.20
2022-07-28T20:32:40.741Z,3.53
2022-07-28T20:35:10.241Z,3.17
2022-07-28T20:37:38.039Z,3.30
2022-07-28T20:40:09.950Z,4.10
2022-07-28T20:42:37.598Z,3.30
2022-07-28T20:45:05.772Z,3.70
2022-07-28T20:47:33.802Z,3.75
2022-07-28T20:50:01.700Z,3.90
2022-07-28T20:52:29.165Z,3.55
2022-07-28T20:54:56.273Z,3.38
2022-07-28T20:57:23.747Z,3.53
2022-07-28T20:59:52.460Z,3.13
2022-07-28T21:02:24.770Z,3.40
2022-07-28T21:04:52.369Z,3.10
2022-07-28T21:08:00.200Z,3.35
2022-07-28T21:10:09.899Z,3.15
2022-07-28T21:12:38.261Z,2.88
2022-07-28T21:15:06.507Z,2.88
2022-07-28T21:17:33.818Z,3.45
2022-07-28T21:20:01.186Z,2.92
2022-07-28T21:22:28.361Z,2.70
2022-07-28T21:24:55.972Z,2.30
2022-07-28T21:27:23.752Z,2.22
2022-07-28T21:32:18.456Z,2.45
2022-07-28T21:34:45.603Z,1.90
2022-07-28T21:37:13.258Z,2.65
2022-07-28T21:39:40.780Z,2.10
2022-07-28T21:42:09.056Z,2.03
2022-07-28T21:44:37.711Z,2.30
2022-07-28T21:47:05.235Z,2.20
2022-07-28T21:49:32.679Z,2.58
2022-07-28T21:52:00.287Z,1.70
2022-07-28T21:54:28.055Z,2.55
2022-07-28T21:56:55.860Z,2.00
2022-07-28T21:59:23.009Z,2.25
2022-07-28T22:01:50.296Z,2.60
2022-07-28T22:04:17.980Z,2.15
2022-07-28T22:06:46.625Z,2.22
2022-07-28T22:09:15.166Z,2.35
2022-07-28T22:11:42.640Z,2.10
2022-07-28T22:14:10.269Z,1.90
2022-07-28T22:16:37.513Z,1.50
2022-07-28T22:19:04.725Z,1.90
2022-07-28T22:21:32.437Z,1.88
2022-07-28T22:23:59.545Z,2.13
2022-07-28T22:26:26.721Z,1.95
2022-07-28T22:28:53.915Z,2.30
2022-07-28T22:31:21.076Z,2.13
2022-07-28T22:33:48.338Z,2.22
2022-07-28T22:36:15.602Z,2.88
2022-07-28T22:38:42.791Z,2.58
2022-07-28T22:41:10.227Z,2.78
2022-07-28T22:43:37.843Z,2.53
2022-07-28T22:46:05.234Z,2.67
2022-07-28T22:48:32.792Z,2.50
2022-07-28T22:50:59.957Z,2.08
2022-07-28T22:53:27.115Z,2.40
2022-07-28T22:55:54.309Z,2.67
2022-07-28T22:58:21.441Z,2.38
2022-07-28T23:00:49.238Z,2.70
2022-07-28T23:03:18.749Z,2.47
2022-07-28T23:05:45.962Z,2.40
2022-07-28T23:08:13.142Z,2.00
2022-07-28T23:10:40.645Z,1.70
2022-07-28T23:13:07.796Z,1.60
2022-07-28T23:15:41.086Z,2.00
2022-07-28T23:18:10.881Z,1.77
2022-07-28T23:20:39.544Z,1.80
2022-07-28T23:23:07.487Z,1.38
2022-07-28T23:25:39.820Z,1.48
2022-07-28T23:28:07.932Z,1.35
2022-07-28T23:30:35.340Z,1.35
2022-07-28T23:33:02.521Z,1.60
2022-07-28T23:35:29.661Z,1.50
2022-07-28T23:37:56.943Z,1.10
2022-07-28T23:40:25.166Z,1.25
2022-07-28T23:42:52.348Z,1.52
2022-07-28T23:45:19.539Z,1.20
2022-07-28T23:47:46.807Z,1.40
2022-07-28T23:50:13.991Z,1.65
2022-07-28T23:52:41.179Z,1.50
2022-07-28T23:55:08.765Z,1.40
2022-07-28T23:57:35.862Z,2.08
